createdAt,value
2022-08-26T00:02:12.814Z,99781.02
2022-08-26T00:04:40.946Z,99777.98
2022-08-26T00:07:09.041Z,99778.58
2022-08-26T00:09:40.174Z,99780.04
2022-08-26T00:12:12.261Z,99778.92
2022-08-26T00:14:41.248Z,99780.87
2022-08-26T00:17:09.812Z,99783.78
2022-08-26T00:19:38.111Z,99786.67
2022-08-26T00:22:06.413Z,99789.48
2022-08-26T00:24:34.695Z,99787.90
2022-08-26T00:27:02.559Z,99783.02
2022-08-26T00:29:32.046Z,99781.55
2022-08-26T00:32:04.173Z,99778.28
2022-08-26T00:34:32.427Z,99772.46
2022-08-26T00:37:00.548Z,99770.83
2022-08-26T00:39:28.428Z,99769.08
2022-08-26T00:41:56.705Z,99769.46
2022-08-26T00:44:24.931Z,99768.27
2022-08-26T00:47:03.264Z,99771.82
2022-08-26T00:49:44.972Z,99769.54
2022-08-26T00:52:18.075Z,99769.86
2022-08-26T00:55:00.978Z,99769.34
2022-08-26T00:57:31.549Z,99766.73
2022-08-26T01:00:03.162Z,99765.24
2022-08-26T01:02:31.066Z,99765.98
2022-08-26T01:05:03.339Z,99767.23
2022-08-26T01:07:34.725Z,99763.29
2022-08-26T01:10:08.597Z,99765.61
2022-08-26T01:12:42.685Z,99768.86
2022-08-26T01:15:15.524Z,99771.59
2022-08-26T01:17:43.832Z,99767.73
2022-08-26T01:20:37.237Z,99771.52
2022-08-26T01:23:08.673Z,99771.07
2022-08-26T01:25:43.070Z,99772.11
2022-08-26T01:28:17.372Z,99775.48
2022-08-26T01:30:47.281Z,99774.83
2022-08-26T01:33:19.392Z,99773.75
2022-08-26T01:35:48.119Z,99773.09
2022-08-26T01:38:18.382Z,99773.75
2022-08-26T01:40:47.073Z,99773.27
2022-08-26T01:43:23.116Z,99769.83
2022-08-26T01:45:55.020Z,99769.49
2022-08-26T01:48:28.816Z,99765.76
2022-08-26T01:50:57.490Z,99763.84
2022-08-26T01:53:27.107Z,99764.02
2022-08-26T01:56:00.457Z,99764.96
2022-08-26T01:58:36.397Z,99764.36
2022-08-26T02:01:05.805Z,99764.28
2022-08-26T02:03:38.796Z,99761.35
2022-08-26T02:06:10.784Z,99764.59
2022-08-26T02:08:43.783Z,99767.58
2022-08-26T02:11:12.341Z,99764.44
2022-08-26T02:13:44.239Z,99765.69
2022-08-26T02:16:13.277Z,99762.73
2022-08-26T02:18:42.932Z,99761.94
2022-08-26T02:21:12.688Z,99762.25
2022-08-26T02:23:41.230Z,99762.55
2022-08-26T02:26:19.181Z,99763.85
2022-08-26T02:28:56.782Z,99768.07
2022-08-26T02:31:25.172Z,99767.85
2022-08-26T02:33:53.354Z,99768.21
2022-08-26T02:36:28.440Z,99763.15
2022-08-26T02:38:57.386Z,99764.91
2022-08-26T02:41:25.620Z,99763.08
2022-08-26T02:43:53.443Z,99762.11
2022-08-26T02:46:30.023Z,99759.86
2022-08-26T02:48:58.723Z,99754.55
2022-08-26T02:51:27.178Z,99755.31
2022-08-26T02:53:55.034Z,99749.73
2022-08-26T02:56:23.963Z,99751.45
2022-08-26T02:58:52.050Z,99750.59
2022-08-26T03:01:24.767Z,99751.13
2022-08-26T03:03:53.696Z,99751.06
2022-08-26T03:06:22.039Z,99747.86
2022-08-26T03:08:50.300Z,99748.70
2022-08-26T03:11:19.613Z,99751.02
2022-08-26T03:13:47.615Z,99752.56
2022-08-26T03:16:16.403Z,99753.72
2022-08-26T03:18:44.394Z,99757.65
2022-08-26T03:21:21.070Z,99756.81
2022-08-26T03:23:49.691Z,99755.38
2022-08-26T03:26:17.978Z,99760.20
2022-08-26T03:29:04.335Z,99760.64
2022-08-26T03:31:32.248Z,99760.80
2022-08-26T03:34:00.247Z,99761.80
2022-08-26T03:36:28.142Z,99764.21
2022-08-26T03:38:57.723Z,99766.87
2022-08-26T03:41:25.567Z,99768.70
2022-08-26T03:43:53.432Z,99767.66
2022-08-26T03:46:21.320Z,99765.43
2022-08-26T03:48:49.438Z,99765.26
2022-08-26T03:51:19.089Z,99766.90
2022-08-26T03:53:48.341Z,99770.89
2022-08-26T03:56:16.349Z,99771.02
2022-08-26T03:58:44.883Z,99771.55
2022-08-26T04:01:15.688Z,99769.77
2022-08-26T04:04:00.527Z,99768.88
2022-08-26T04:06:32.429Z,99773.94
2022-08-26T04:09:04.294Z,99771.43
2022-08-26T04:11:35.894Z,99770.46
2022-08-26T04:14:11.171Z,99771.02
2022-08-26T04:16:39.181Z,99769.95
2022-08-26T04:19:08.753Z,99772.13
2022-08-26T04:21:38.494Z,99769.77
2022-08-26T04:24:12.005Z,99769.48
2022-08-26T04:26:42.804Z,99769.48
2022-08-26T04:29:15.561Z,99772.05
2022-08-26T04:31:43.892Z,99776.50
2022-08-26T04:34:11.924Z,99777.94
2022-08-26T04:36:43.172Z,99775.96
2022-08-26T04:39:12.575Z,99777.55
2022-08-26T04:41:40.430Z,99775.20
2022-08-26T04:44:08.334Z,99775.02
2022-08-26T04:46:39.944Z,99775.28
2022-08-26T04:49:13.230Z,99772.22
2022-08-26T04:51:41.183Z,99775.19
2022-08-26T04:54:11.770Z,99773.20
2022-08-26T04:56:42.738Z,99774.20
2022-08-26T04:59:16.723Z,99773.62
2022-08-26T05:01:48.688Z,99773.08
2022-08-26T05:04:19.285Z,99769.61
2022-08-26T05:06:49.664Z,99770.08
2022-08-26T05:09:20.831Z,99768.61
2022-08-26T05:11:52.217Z,99765.73
2022-08-26T05:14:23.376Z,99764.20
2022-08-26T05:16:52.322Z,99764.73
2022-08-26T05:19:21.170Z,99762.36
2022-08-26T05:21:49.553Z,99763.39
2022-08-26T05:24:18.170Z,99764.98
2022-08-26T05:26:47.339Z,99764.27
2022-08-26T05:29:16.840Z,99766.04
2022-08-26T05:31:44.940Z,99765.65
2022-08-26T05:34:13.390Z,99770.31
2022-08-26T05:36:42.110Z,99770.77
2022-08-26T05:39:10.817Z,99770.45
2022-08-26T05:41:41.838Z,99774.06
2022-08-26T05:44:14.185Z,99771.77
2022-08-26T05:46:44.828Z,99773.14
2022-08-26T05:49:15.803Z,99774.14
2022-08-26T05:51:47.511Z,99777.92
2022-08-26T05:54:21.834Z,99778.40
2022-08-26T05:56:51.914Z,99776.74
2022-08-26T05:59:24.156Z,99781.02
2022-08-26T06:01:55.071Z,99780.13
2022-08-26T06:04:27.577Z,99780.93
2022-08-26T06:06:58.674Z,99780.23
2022-08-26T06:09:27.356Z,99778.36
2022-08-26T06:11:56.141Z,99778.77
2022-08-26T06:14:26.043Z,99779.02
2022-08-26T06:16:55.038Z,99778.17
2022-08-26T06:19:23.499Z,99776.55
2022-08-26T06:21:54.666Z,99776.77
2022-08-26T06:24:41.545Z,99776.07
2022-08-26T06:27:13.783Z,99780.62
2022-08-26T06:29:43.252Z,99778.67
2022-08-26T06:32:11.629Z,99779.60
2022-08-26T06:34:39.543Z,99783.70
2022-08-26T06:37:08.923Z,99784.84
2022-08-26T06:39:41.235Z,99784.36
2022-08-26T06:42:11.813Z,99784.05
2022-08-26T06:44:41.714Z,99783.73
2022-08-26T06:47:12.655Z,99788.77
2022-08-26T06:49:40.577Z,99788.67
2022-08-26T06:52:08.575Z,99786.48
2022-08-26T06:54:38.788Z,99785.30
2022-08-26T06:57:06.858Z,99789.30
2022-08-26T06:59:35.506Z,99787.64
2022-08-26T07:02:04.035Z,99786.34
2022-08-26T07:04:34.673Z,99784.21
2022-08-26T07:07:03.859Z,99781.33
2022-08-26T07:09:33.290Z,99776.95
2022-08-26T07:12:02.047Z,99776.16
2022-08-26T07:14:31.802Z,99775.10
2022-08-26T07:17:01.394Z,99771.63
2022-08-26T07:19:31.240Z,99770.76
2022-08-26T07:22:03.435Z,99769.52
2022-08-26T07:24:35.045Z,99767.34
2022-08-26T07:27:06.002Z,99768.25
2022-08-26T07:29:36.368Z,99765.49
2022-08-26T07:32:05.129Z,99766.88
2022-08-26T07:34:33.406Z,99766.05
2022-08-26T07:37:02.213Z,99764.33
2022-08-26T07:39:32.821Z,99760.30
2022-08-26T07:42:07.600Z,99759.77
2022-08-26T07:44:38.128Z,99753.38
2022-08-26T07:47:10.058Z,99751.75
2022-08-26T07:49:39.018Z,99747.25
2022-08-26T07:52:08.743Z,99749.07
2022-08-26T07:54:37.684Z,99745.36
2022-08-26T07:57:09.300Z,99748.80
2022-08-26T07:59:38.210Z,99741.23
2022-08-26T08:02:06.653Z,99738.23
2022-08-26T08:04:34.872Z,99736.46
2022-08-26T08:07:02.795Z,99731.62
2022-08-26T08:09:30.623Z,99731.51
2022-08-26T08:11:58.426Z,99730.71
2022-08-26T08:14:28.487Z,99727.96
2022-08-26T08:16:56.701Z,99727.29
2022-08-26T08:19:25.079Z,99724.50
2022-08-26T08:22:06.899Z,99724.23
2022-08-26T08:24:50.012Z,99719.23
2022-08-26T08:27:23.733Z,99717.16
2022-08-26T08:29:57.269Z,99720.91
2022-08-26T08:32:25.094Z,99718.02
2022-08-26T08:34:53.507Z,99716.02
2022-08-26T08:37:21.781Z,99712.48
2022-08-26T08:39:50.218Z,99710.33
2022-08-26T08:42:43.188Z,99712.17
2022-08-26T08:45:34.502Z,99708.65
2022-08-26T08:48:11.780Z,99704.08
2022-08-26T08:50:45.809Z,99702.09
2022-08-26T08:53:18.912Z,99698.30
2022-08-26T08:56:23.827Z,99697.58
2022-08-26T08:58:56.798Z,99690.63
2022-08-26T09:01:28.245Z,99689.42
2022-08-26T09:04:17.266Z,99688.36
2022-08-26T09:06:48.700Z,99683.67
2022-08-26T09:09:29.382Z,99683.79
2022-08-26T09:11:58.883Z,99679.95
2022-08-26T09:14:28.080Z,99676.22
2022-08-26T09:17:08.646Z,99674.66
2022-08-26T09:19:49.573Z,99669.34
2022-08-26T09:22:30.123Z,99667.58
2022-08-26T09:24:58.199Z,99663.08
2022-08-26T09:27:50.480Z,99662.21
2022-08-26T09:30:33.090Z,99655.23
2022-08-26T09:33:10.064Z,99650.65
2022-08-26T09:35:45.624Z,99648.09
2022-08-26T09:38:26.786Z,99649.34
2022-08-26T09:41:08.386Z,99646.86
2022-08-26T09:43:37.086Z,99641.09
2022-08-26T09:46:19.467Z,99638.09
2022-08-26T09:48:48.250Z,99635.64
2022-08-26T09:51:23.715Z,99636.30
2022-08-26T09:53:59.336Z,99631.14
2022-08-26T09:56:36.151Z,99633.92
2022-08-26T09:59:08.432Z,99629.35
2022-08-26T10:01:42.719Z,99630.20
2022-08-26T10:04:30.895Z,99630.77
2022-08-26T10:07:00.891Z,99633.02
2022-08-26T10:09:33.865Z,99633.84
2022-08-26T10:12:10.985Z,99631.36
2022-08-26T10:15:03.813Z,99631.55
2022-08-26T10:17:37.117Z,99628.84
2022-08-26T10:20:23.533Z,99622.33
2022-08-26T10:23:06.265Z,99624.69
2022-08-26T10:25:53.737Z,99625.44
2022-08-26T10:28:48.755Z,99620.20
2022-08-26T10:31:27.804Z,99619.73
2022-08-26T10:34:00.179Z,99617.99
2022-08-26T10:37:15.779Z,99619.42
2022-08-26T10:40:00.831Z,99617.33
2022-08-26T10:42:58.137Z,99615.20
2022-08-26T10:45:28.497Z,99609.61
2022-08-26T10:47:59.911Z,99605.16
2022-08-26T10:50:34.443Z,99603.62
2022-08-26T10:53:07.591Z,99599.77
2022-08-26T10:55:48.225Z,99599.08
2022-08-26T10:58:45.569Z,99596.58
2022-08-26T11:01:43.043Z,99589.00
2022-08-26T11:04:40.870Z,99588.98
2022-08-26T11:07:31.770Z,99584.42
2022-08-26T11:10:07.534Z,99581.70
2022-08-26T11:12:36.114Z,99577.89
2022-08-26T11:15:26.530Z,99573.58
2022-08-26T11:18:02.168Z,99572.85
2022-08-26T11:20:31.663Z,99570.16
2022-08-26T11:23:22.508Z,99566.29
2022-08-26T11:25:56.099Z,99562.65
2022-08-26T11:28:37.008Z,99564.33
2022-08-26T11:31:10.270Z,99564.60
2022-08-26T11:33:44.209Z,99566.23
2022-08-26T11:36:37.504Z,99568.73
2022-08-26T11:39:29.143Z,99569.86
2022-08-26T11:42:17.085Z,99564.95
2022-08-26T11:44:49.688Z,99560.47
2022-08-26T11:47:27.360Z,99558.51
2022-08-26T11:50:07.837Z,99552.73
2022-08-26T11:52:35.915Z,99549.54
2022-08-26T11:55:06.964Z,99548.00
2022-08-26T11:57:44.743Z,99550.09
2022-08-26T12:00:33.769Z,99545.58
2022-08-26T12:03:07.640Z,99545.48
2022-08-26T12:05:42.544Z,99539.77
2022-08-26T12:08:14.286Z,99540.34
2022-08-26T12:10:42.651Z,99536.52
2022-08-26T12:13:22.805Z,99533.88
2022-08-26T12:15:56.813Z,99533.88
2022-08-26T12:18:30.227Z,99532.42
2022-08-26T12:21:12.278Z,99532.08
2022-08-26T12:23:52.356Z,99529.89
2022-08-26T12:26:26.264Z,99529.05
2022-08-26T12:29:00.445Z,99527.22
2022-08-26T12:31:35.284Z,99528.94
2022-08-26T12:34:07.402Z,99525.89
2022-08-26T12:36:54.744Z,99525.15
2022-08-26T12:39:28.791Z,99523.00
2022-08-26T12:41:59.143Z,99523.86
2022-08-26T12:44:53.707Z,99527.81
2022-08-26T12:47:42.613Z,99526.88
2022-08-26T12:50:19.723Z,99522.89
2022-08-26T12:53:10.537Z,99520.58
2022-08-26T12:55:51.676Z,99522.52
2022-08-26T12:58:38.277Z,99523.00
2022-08-26T13:01:09.286Z,99520.67
2022-08-26T13:03:46.459Z,99522.31
2022-08-26T13:06:23.557Z,99518.89
2022-08-26T13:09:25.423Z,99521.06
2022-08-26T13:11:53.192Z,99515.88
2022-08-26T13:14:23.899Z,99515.20
2022-08-26T13:16:53.072Z,99513.72
2022-08-26T13:19:25.499Z,99513.95
2022-08-26T13:21:57.004Z,99507.02
2022-08-26T13:24:35.089Z,99505.30
2022-08-26T13:27:08.298Z,99499.34
2022-08-26T13:29:38.133Z,99501.06
2022-08-26T13:32:08.013Z,99501.34
2022-08-26T13:34:37.960Z,99499.52
2022-08-26T13:37:06.415Z,99494.09
2022-08-26T13:39:34.439Z,99488.06
2022-08-26T13:42:02.342Z,99495.56
2022-08-26T13:44:30.133Z,99492.38
2022-08-26T13:46:57.947Z,99486.61
2022-08-26T13:49:25.770Z,99485.35
2022-08-26T13:51:53.642Z,99486.48
2022-08-26T13:54:22.135Z,99484.64
2022-08-26T13:56:50.003Z,99483.20
2022-08-26T13:59:17.859Z,99482.77
2022-08-26T14:01:45.721Z,99487.50
2022-08-26T14:04:13.618Z,99487.71
2022-08-26T14:06:42.177Z,99484.04
2022-08-26T14:09:11.432Z,99486.77
2022-08-26T14:11:50.897Z,99483.46
2022-08-26T14:14:23.153Z,99482.33
2022-08-26T14:16:59.241Z,99479.20
2022-08-26T14:19:31.552Z,99475.96
2022-08-26T14:22:00.923Z,99477.23
2022-08-26T14:24:30.289Z,99477.95
2022-08-26T14:26:58.806Z,99475.89
2022-08-26T14:29:27.064Z,99476.59
2022-08-26T14:31:57.695Z,99479.41
2022-08-26T14:34:28.799Z,99477.51
2022-08-26T14:36:56.813Z,99478.69
2022-08-26T14:39:25.149Z,99475.26
2022-08-26T14:41:56.549Z,99474.84
2022-08-26T14:44:31.312Z,99476.75
2022-08-26T14:47:01.517Z,99480.15
2022-08-26T14:49:31.270Z,99478.16
2022-08-26T14:51:59.816Z,99478.48
2022-08-26T14:54:29.553Z,99477.34
2022-08-26T14:57:07.238Z,99475.23
2022-08-26T14:59:43.579Z,99474.35
2022-08-26T15:02:25.260Z,99470.77
2022-08-26T15:05:02.937Z,99474.02
2022-08-26T15:07:31.181Z,99470.94
2022-08-26T15:09:59.995Z,99471.23
2022-08-26T15:12:27.838Z,99470.14
2022-08-26T15:14:55.932Z,99469.05
2022-08-26T15:17:24.284Z,99471.70
2022-08-26T15:19:52.892Z,99473.55
2022-08-26T15:22:21.173Z,99470.38
2022-08-26T15:24:51.742Z,99471.88
2022-08-26T15:27:21.893Z,99472.15
2022-08-26T15:29:50.212Z,99471.99
2022-08-26T15:32:18.863Z,99471.33
2022-08-26T15:34:47.272Z,99476.34
2022-08-26T15:37:15.344Z,99476.52
2022-08-26T15:39:44.021Z,99475.70
2022-08-26T15:42:12.192Z,99477.59
2022-08-26T15:44:45.001Z,99477.49
2022-08-26T15:47:13.246Z,99476.81
2022-08-26T15:49:41.561Z,99478.89
2022-08-26T15:52:09.898Z,99480.85
2022-08-26T15:54:38.106Z,99482.35
2022-08-26T15:57:09.511Z,99483.98
2022-08-26T15:59:40.156Z,99484.36
2022-08-26T16:02:08.616Z,99483.58
2022-08-26T16:04:37.134Z,99485.33
2022-08-26T16:07:05.326Z,99485.77
2022-08-26T16:09:33.561Z,99483.44
2022-08-26T16:12:01.564Z,99483.82
2022-08-26T16:14:30.136Z,99482.54
2022-08-26T16:16:58.217Z,99483.90
2022-08-26T16:19:26.098Z,99487.56
2022-08-26T16:21:54.446Z,99489.36
2022-08-26T16:24:25.910Z,99489.91
2022-08-26T16:26:55.590Z,99487.86
2022-08-26T16:29:24.785Z,99486.01
2022-08-26T16:31:54.780Z,99483.59
2022-08-26T16:34:22.910Z,99486.24
2022-08-26T16:36:51.110Z,99487.89
2022-08-26T16:39:19.243Z,99484.76
2022-08-26T16:41:47.155Z,99483.27
2022-08-26T16:44:15.156Z,99483.35
2022-08-26T16:46:43.825Z,99479.81
2022-08-26T16:49:12.326Z,99482.00
2022-08-26T16:51:40.515Z,99480.45
2022-08-26T16:54:09.025Z,99479.66
2022-08-26T16:56:37.829Z,99475.29
2022-08-26T16:59:09.608Z,99475.04
2022-08-26T17:01:37.741Z,99476.77
2022-08-26T17:04:05.713Z,99479.92
2022-08-26T17:06:34.369Z,99479.32
2022-08-26T17:09:02.296Z,99480.88
2022-08-26T17:11:30.925Z,99482.16
2022-08-26T17:13:59.488Z,99484.23
2022-08-26T17:16:27.613Z,99480.96
2022-08-26T17:18:57.578Z,99478.27
2022-08-26T17:21:29.300Z,99479.40
2022-08-26T17:23:57.235Z,99479.14
2022-08-26T17:26:26.375Z,99481.95
2022-08-26T17:28:54.921Z,99479.77
2022-08-26T17:31:23.759Z,99478.83
2022-08-26T17:33:53.859Z,99479.42
2022-08-26T17:36:27.993Z,99479.11
2022-08-26T17:38:58.533Z,99475.84
2022-08-26T17:41:27.111Z,99475.23
2022-08-26T17:43:55.903Z,99477.11
2022-08-26T17:46:24.189Z,99476.74
2022-08-26T17:48:52.393Z,99479.59
2022-08-26T17:51:22.992Z,99480.91
2022-08-26T17:53:51.923Z,99481.36
2022-08-26T17:56:26.087Z,99482.64
2022-08-26T17:58:56.855Z,99486.38
2022-08-26T18:01:27.105Z,99484.98
2022-08-26T18:04:00.125Z,99489.00
2022-08-26T18:06:30.813Z,99494.54
2022-08-26T18:09:00.599Z,99495.16
2022-08-26T18:11:29.798Z,99496.31
2022-08-26T18:13:58.453Z,99497.98
2022-08-26T18:16:27.326Z,99496.38
2022-08-26T18:18:55.824Z,99498.23
2022-08-26T18:21:26.705Z,99499.17
2022-08-26T18:23:55.892Z,99502.14
2022-08-26T18:26:25.974Z,99500.34
2022-08-26T18:28:54.019Z,99501.21
2022-08-26T18:31:22.260Z,99502.38
2022-08-26T18:33:50.974Z,99503.06
2022-08-26T18:36:24.759Z,99503.58
2022-08-26T18:38:54.147Z,99504.63
2022-08-26T18:41:24.574Z,99502.08
2022-08-26T18:43:54.137Z,99503.23
2022-08-26T18:46:27.030Z,99503.53
2022-08-26T18:48:56.919Z,99502.22
2022-08-26T18:51:29.674Z,99505.20
2022-08-26T18:53:59.761Z,99499.91
2022-08-26T18:56:28.645Z,99506.15
2022-08-26T18:58:56.701Z,99508.50
2022-08-26T19:01:27.700Z,99507.45
2022-08-26T19:03:57.793Z,99512.98
2022-08-26T19:06:27.263Z,99514.23
2022-08-26T19:08:57.924Z,99515.21
2022-08-26T19:11:31.746Z,99511.83
2022-08-26T19:14:02.130Z,99512.36
2022-08-26T19:16:30.797Z,99512.19
2022-08-26T19:19:01.071Z,99514.33
2022-08-26T19:21:29.844Z,99512.80
2022-08-26T19:24:00.187Z,99511.73
2022-08-26T19:26:28.419Z,99507.89
2022-08-26T19:28:56.413Z,99505.86
2022-08-26T19:31:24.253Z,99503.26
2022-08-26T19:33:52.327Z,99501.19
2022-08-26T19:36:23.752Z,99500.77
2022-08-26T19:38:52.499Z,99506.49
2022-08-26T19:41:36.945Z,99505.70
2022-08-26T19:44:09.790Z,99507.28
2022-08-26T19:49:11.856Z,99512.52
2022-08-26T19:51:40.056Z,99512.35
2022-08-26T19:54:07.971Z,99506.60
2022-08-26T19:56:36.572Z,99504.16
2022-08-26T19:59:04.680Z,99504.56
2022-08-26T20:01:32.609Z,99501.63
2022-08-26T20:04:01.236Z,99502.85
2022-08-26T20:06:29.406Z,99503.08
2022-08-26T20:08:57.800Z,99505.05
2022-08-26T20:11:25.992Z,99503.46
2022-08-26T20:13:54.148Z,99505.46
2022-08-26T20:16:22.260Z,99505.40
2022-08-26T20:19:09.007Z,99509.50
2022-08-26T20:21:39.895Z,99508.56
2022-08-26T20:24:11.676Z,99508.95
2022-08-26T20:26:42.855Z,99510.69
2022-08-26T20:29:16.541Z,99513.00
2022-08-26T20:31:45.765Z,99511.06
2022-08-26T20:34:16.693Z,99514.96
2022-08-26T20:36:46.566Z,99514.63
2022-08-26T20:39:15.639Z,99515.81
2022-08-26T20:41:44.111Z,99515.66
2022-08-26T20:44:13.374Z,99516.59
2022-08-26T20:46:41.752Z,99518.87
2022-08-26T20:49:10.026Z,99518.03
2022-08-26T20:51:38.525Z,99520.41
2022-08-26T20:54:07.124Z,99518.23
2022-08-26T20:56:36.149Z,99520.82
2022-08-26T20:59:06.936Z,99524.23
2022-08-26T21:01:37.261Z,99525.16
2022-08-26T21:04:13.995Z,99525.13
2022-08-26T21:06:49.404Z,99529.34
2022-08-26T21:09:23.235Z,99532.09
2022-08-26T21:11:52.771Z,99536.23
2022-08-26T21:14:23.096Z,99540.94
2022-08-26T21:16:54.311Z,99538.90
2022-08-26T21:19:22.863Z,99542.36
2022-08-26T21:21:50.997Z,99543.74
2022-08-26T21:24:19.372Z,99543.82
2022-08-26T21:26:47.962Z,99546.18
2022-08-26T21:29:16.453Z,99545.33
2022-08-26T21:31:46.743Z,99547.51
2022-08-26T21:34:19.715Z,99547.80
2022-08-26T21:36:47.921Z,99553.79
2022-08-26T21:39:16.816Z,99555.00
2022-08-26T21:41:45.484Z,99551.41
2022-08-26T21:44:15.226Z,99550.23
2022-08-26T21:46:44.730Z,99548.04
2022-08-26T21:49:15.793Z,99541.98
2022-08-26T21:51:47.099Z,99541.17
2022-08-26T21:54:18.062Z,99546.85
2022-08-26T21:56:47.324Z,99548.02
2022-08-26T21:59:17.933Z,99550.70
2022-08-26T22:01:46.554Z,99550.00
2022-08-26T22:04:16.250Z,99547.41
2022-08-26T22:06:50.701Z,99548.00
2022-08-26T22:09:25.138Z,99546.84
2022-08-26T22:11:54.244Z,99551.15
2022-08-26T22:14:22.532Z,99546.83
2022-08-26T22:16:51.065Z,99548.19
2022-08-26T22:19:21.145Z,99543.14
2022-08-26T22:21:54.193Z,99541.86
2022-08-26T22:24:23.671Z,99545.61
2022-08-26T22:26:52.794Z,99552.66
2022-08-26T22:29:21.378Z,99549.85
2022-08-26T22:31:49.427Z,99545.27
2022-08-26T22:34:19.603Z,99544.42
2022-08-26T22:36:49.446Z,99542.33
2022-08-26T22:39:21.151Z,99543.87
2022-08-26T22:41:49.499Z,99544.59
2022-08-26T22:44:18.964Z,99537.85
2022-08-26T22:46:48.299Z,99537.48
2022-08-26T22:49:17.328Z,99532.14
2022-08-26T22:51:46.271Z,99533.16
2022-08-26T22:54:15.207Z,99536.98
2022-08-26T22:56:45.224Z,99535.26
2022-08-26T22:59:14.168Z,99542.66
2022-08-26T23:01:44.284Z,99549.28
2022-08-26T23:04:12.498Z,99547.52
2022-08-26T23:06:47.678Z,99548.06
2022-08-26T23:09:18.950Z,99549.40
2022-08-26T23:11:48.535Z,99543.06
2022-08-26T23:14:18.443Z,99542.57
2022-08-26T23:16:47.403Z,99545.59
2022-08-26T23:19:19.278Z,99544.95
2022-08-26T23:21:48.858Z,99543.44
2022-08-26T23:24:17.390Z,99543.06
2022-08-26T23:26:45.825Z,99542.72
2022-08-26T23:29:16.074Z,99539.89
2022-08-26T23:31:44.573Z,99537.95
2022-08-26T23:34:32.393Z,99535.30
2022-08-26T23:37:01.928Z,99537.80
2022-08-26T23:39:32.896Z,99538.85
2022-08-26T23:42:02.062Z,99540.68
2022-08-26T23:44:32.269Z,99535.30
2022-08-26T23:47:00.758Z,99538.63
2022-08-26T23:49:29.475Z,99535.48
2022-08-26T23:52:16.470Z,99527.90
2022-08-26T23:54:45.561Z,99532.64
2022-08-26T23:57:13.390Z,99528.40
2022-08-26T23:59:42.345Z,99530.84
